sensor_id;sensor_type;location;lat;lon;timestamp;pressure;altitude;pressure_sealevel;temperature;humidity
27984;BME280;15317;50.360;8.726;2023-09-08T00:00:28;99772.88;;;16.81;100.00
27984;BME280;15317;50.360;8.726;2023-09-08T00:05:32;99775.81;;;16.79;100.00
27984;BME280;15317;50.360;8.726;2023-09-08T00:10:37;99780.00;;;16.75;100.00
27984;BME280;15317;50.360;8.726;2023-09-08T00:15:42;99780.59;;;16.71;100.00
27984;BME280;15317;50.360;8.726;2023-09-08T00:20:46;99775.47;;;16.68;100.00
27984;BME280;15317;50.360;8.726;2023-09-08T00:25:50;99778.13;;;16.61;100.00
27984;BME280;15317;50.360;8.726;2023-09-08T00:30:55;99771.69;;;16.54;100.00
27984;BME280;15317;50.360;8.726;2023-09-08T00:35:59;99763.94;;;16.43;100.00
27984;BME280;15317;50.360;8.726;2023-09-08T00:41:04;99765.56;;;16.37;100.00
27984;BME280;15317;50.360;8.726;2023-09-08T00:46:09;99769.03;;;16.31;100.00
27984;BME280;15317;50.360;8.726;2023-09-08T00:51:14;99763.69;;;16.23;100.00
27984;BME280;15317;50.360;8.726;2023-09-08T00:56:18;99763.94;;;16.13;100.00
27984;BME280;15317;50.360;8.726;2023-09-08T01:01:23;99760.53;;;16.11;100.00
27984;BME280;15317;50.360;8.726;2023-09-08T01:06:28;99754.59;;;16.08;100.00
27984;BME280;15317;50.360;8.726;2023-09-08T01:11:32;99761.47;;;16.04;100.00
27984;BME280;15317;50.360;8.726;2023-09-08T01:16:37;99754.13;;;16.04;100.00
27984;BME280;15317;50.360;8.726;2023-09-08T01:22:10;99766.03;;;16.11;100.00
27984;BME280;15317;50.360;8.726;2023-09-08T01:27:16;99763.50;;;16.10;100.00
27984;BME280;15317;50.360;8.726;2023-09-08T01:32:22;99761.78;;;16.09;100.00
27984;BME280;15317;50.360;8.726;2023-09-08T01:37:25;99764.31;;;16.10;100.00
27984;BME280;15317;50.360;8.726;2023-09-08T01:42:30;99768.47;;;16.06;100.00
27984;BME280;15317;50.360;8.726;2023-09-08T01:47:34;99759.22;;;16.07;100.00
27984;BME280;15317;50.360;8.726;2023-09-08T01:52:37;99756.56;;;15.99;100.00
27984;BME280;15317;50.360;8.726;2023-09-08T01:57:42;99760.25;;;15.92;100.00
27984;BME280;15317;50.360;8.726;2023-09-08T02:02:46;99762.06;;;15.99;100.00
27984;BME280;15317;50.360;8.726;2023-09-08T02:07:49;99756.50;;;16.07;100.00
27984;BME280;15317;50.360;8.726;2023-09-08T02:12:53;99756.31;;;16.09;100.00
27984;BME280;15317;50.360;8.726;2023-09-08T02:17:57;99746.56;;;16.06;100.00
27984;BME280;15317;50.360;8.726;2023-09-08T02:23:05;99755.34;;;16.02;100.00
27984;BME280;15317;50.360;8.726;2023-09-08T02:28:10;99750.63;;;15.96;100.00
27984;BME280;15317;50.360;8.726;2023-09-08T02:33:13;99753.56;;;15.94;100.00
27984;BME280;15317;50.360;8.726;2023-09-08T02:38:17;99741.00;;;16.00;100.00
27984;BME280;15317;50.360;8.726;2023-09-08T02:43:21;99744.69;;;16.07;100.00
27984;BME280;15317;50.360;8.726;2023-09-08T02:48:24;99742.78;;;16.07;100.00
27984;BME280;15317;50.360;8.726;2023-09-08T02:53:28;99743.53;;;16.01;100.00
27984;BME280;15317;50.360;8.726;2023-09-08T02:58:32;99743.44;;;15.95;100.00
27984;BME280;15317;50.360;8.726;2023-09-08T03:03:37;99734.81;;;15.83;100.00
27984;BME280;15317;50.360;8.726;2023-09-08T03:08:40;99741.81;;;15.71;100.00
27984;BME280;15317;50.360;8.726;2023-09-08T03:13:45;99745.00;;;15.60;100.00
27984;BME280;15317;50.360;8.726;2023-09-08T03:18:48;99748.09;;;15.57;100.00
27984;BME280;15317;50.360;8.726;2023-09-08T03:23:51;99744.38;;;15.50;100.00
27984;BME280;15317;50.360;8.726;2023-09-08T03:28:56;99752.31;;;15.45;100.00
27984;BME280;15317;50.360;8.726;2023-09-08T03:33:59;99747.75;;;15.37;100.00
27984;BME280;15317;50.360;8.726;2023-09-08T03:39:03;99751.22;;;15.31;100.00
27984;BME280;15317;50.360;8.726;2023-09-08T03:44:08;99748.66;;;15.29;100.00
27984;BME280;15317;50.360;8.726;2023-09-08T03:49:11;99752.81;;;15.25;100.00
27984;BME280;15317;50.360;8.726;2023-09-08T03:54:14;99747.56;;;15.16;100.00
27984;BME280;15317;50.360;8.726;2023-09-08T03:59:19;99754.63;;;15.10;100.00
27984;BME280;15317;50.360;8.726;2023-09-08T04:04:22;99751.59;;;15.05;100.00
27984;BME280;15317;50.360;8.726;2023-09-08T04:09:25;99757.41;;;15.02;100.00
27984;BME280;15317;50.360;8.726;2023-09-08T04:14:31;99760.72;;;14.97;100.00
27984;BME280;15317;50.360;8.726;2023-09-08T04:19:36;99762.28;;;14.92;100.00
27984;BME280;15317;50.360;8.726;2023-09-08T04:24:39;99771.06;;;14.87;100.00
27984;BME280;15317;50.360;8.726;2023-09-08T04:29:44;99772.38;;;14.91;100.00
27984;BME280;15317;50.360;8.726;2023-09-08T04:34:47;99767.72;;;15.00;100.00
27984;BME280;15317;50.360;8.726;2023-09-08T04:39:51;99768.25;;;15.18;100.00
27984;BME280;15317;50.360;8.726;2023-09-08T04:44:55;99772.25;;;15.30;100.00
27984;BME280;15317;50.360;8.726;2023-09-08T04:49:59;99771.16;;;15.39;100.00
27984;BME280;15317;50.360;8.726;2023-09-08T04:55:02;99771.53;;;15.36;100.00
27984;BME280;15317;50.360;8.726;2023-09-08T05:00:09;99777.91;;;15.29;100.00
27984;BME280;15317;50.360;8.726;2023-09-08T05:05:13;99788.75;;;15.22;100.00
27984;BME280;15317;50.360;8.726;2023-09-08T05:10:17;99788.25;;;15.19;100.00
27984;BME280;15317;50.360;8.726;2023-09-08T05:15:21;99789.16;;;15.11;100.00
27984;BME280;15317;50.360;8.726;2023-09-08T05:20:27;99798.66;;;15.00;100.00
27984;BME280;15317;50.360;8.726;2023-09-08T05:25:30;99799.56;;;14.93;100.00
27984;BME280;15317;50.360;8.726;2023-09-08T05:30:35;99795.84;;;14.86;100.00
27984;BME280;15317;50.360;8.726;2023-09-08T05:35:38;99805.06;;;14.85;100.00
27984;BME280;15317;50.360;8.726;2023-09-08T05:40:41;99806.78;;;14.86;100.00
27984;BME280;15317;50.360;8.726;2023-09-08T05:45:47;99816.81;;;14.93;100.00
27984;BME280;15317;50.360;8.726;2023-09-08T05:50:50;99813.13;;;15.09;100.00
27984;BME280;15317;50.360;8.726;2023-09-08T05:55:53;99816.78;;;15.24;100.00
27984;BME280;15317;50.360;8.726;2023-09-08T06:00:58;99820.78;;;15.36;100.00
27984;BME280;15317;50.360;8.726;2023-09-08T06:06:01;99828.22;;;15.51;100.00
27984;BME280;15317;50.360;8.726;2023-09-08T06:11:05;99820.59;;;15.69;100.00
27984;BME280;15317;50.360;8.726;2023-09-08T06:16:09;99820.41;;;15.85;100.00
27984;BME280;15317;50.360;8.726;2023-09-08T06:21:13;99819.97;;;16.11;100.00
27984;BME280;15317;50.360;8.726;2023-09-08T06:26:16;99817.75;;;16.44;100.00
27984;BME280;15317;50.360;8.726;2023-09-08T06:31:21;99820.88;;;16.70;100.00
27984;BME280;15317;50.360;8.726;2023-09-08T06:36:25;99818.63;;;16.95;100.00
27984;BME280;15317;50.360;8.726;2023-09-08T06:41:29;99814.22;;;17.15;100.00
27984;BME280;15317;50.360;8.726;2023-09-08T06:46:34;99819.56;;;17.38;100.00
27984;BME280;15317;50.360;8.726;2023-09-08T06:51:37;99814.72;;;17.61;100.00
27984;BME280;15317;50.360;8.726;2023-09-08T06:56:41;99818.81;;;17.93;100.00
27984;BME280;15317;50.360;8.726;2023-09-08T07:01:46;99813.00;;;18.37;100.00
27984;BME280;15317;50.360;8.726;2023-09-08T07:06:51;99814.00;;;19.18;100.00
27984;BME280;15317;50.360;8.726;2023-09-08T07:11:56;99814.97;;;20.44;100.00
27984;BME280;15317;50.360;8.726;2023-09-08T07:17:02;99816.72;;;21.72;92.28
27984;BME280;15317;50.360;8.726;2023-09-08T07:22:06;99808.44;;;22.65;82.70
27984;BME280;15317;50.360;8.726;2023-09-08T07:27:09;99811.50;;;23.71;78.36
27984;BME280;15317;50.360;8.726;2023-09-08T07:32:16;99818.38;;;24.68;72.01
27984;BME280;15317;50.360;8.726;2023-09-08T07:37:19;99815.69;;;25.25;70.70
27984;BME280;15317;50.360;8.726;2023-09-08T07:42:23;99820.78;;;25.85;62.97
27984;BME280;15317;50.360;8.726;2023-09-08T07:47:29;99832.41;;;26.49;66.56
27984;BME280;15317;50.360;8.726;2023-09-08T07:52:32;99835.47;;;26.30;62.06
27984;BME280;15317;50.360;8.726;2023-09-08T07:57:36;99827.00;;;26.59;60.19
27984;BME280;15317;50.360;8.726;2023-09-08T08:02:42;99825.69;;;26.45;56.91
27984;BME280;15317;50.360;8.726;2023-09-08T08:07:46;99827.13;;;26.86;59.47
27984;BME280;15317;50.360;8.726;2023-09-08T08:12:50;99827.16;;;27.29;58.84
27984;BME280;15317;50.360;8.726;2023-09-08T08:17:55;99829.66;;;27.31;52.34
27984;BME280;15317;50.360;8.726;2023-09-08T08:22:59;99829.22;;;27.39;55.19
27984;BME280;15317;50.360;8.726;2023-09-08T08:28:02;99828.91;;;27.84;54.73
27984;BME280;15317;50.360;8.726;2023-09-08T08:33:07;99827.66;;;27.48;50.37
27984;BME280;15317;50.360;8.726;2023-09-08T08:38:10;99834.09;;;28.34;48.33
27984;BME280;15317;50.360;8.726;2023-09-08T08:43:14;99827.75;;;27.85;53.24
27984;BME280;15317;50.360;8.726;2023-09-08T08:48:19;99826.56;;;28.03;49.06
27984;BME280;15317;50.360;8.726;2023-09-08T08:53:27;99824.13;;;28.11;46.49
27984;BME280;15317;50.360;8.726;2023-09-08T08:58:31;99829.47;;;28.92;48.03
27984;BME280;15317;50.360;8.726;2023-09-08T09:03:38;99828.16;;;28.67;47.02
27984;BME280;15317;50.360;8.726;2023-09-08T09:08:42;99834.31;;;29.06;43.84
27984;BME280;15317;50.360;8.726;2023-09-08T09:13:46;99824.78;;;28.60;46.24
27984;BME280;15317;50.360;8.726;2023-09-08T09:18:55;99819.81;;;29.25;45.55
27984;BME280;15317;50.360;8.726;2023-09-08T09:23:59;99818.78;;;29.36;44.16
27984;BME280;15317;50.360;8.726;2023-09-08T09:29:11;99811.09;;;29.11;46.67
27984;BME280;15317;50.360;8.726;2023-09-08T09:34:17;99817.97;;;29.45;44.41
27984;BME280;15317;50.360;8.726;2023-09-08T09:39:21;99812.94;;;29.48;43.71
27984;BME280;15317;50.360;8.726;2023-09-08T09:44:25;99816.03;;;28.94;46.56
27984;BME280;15317;50.360;8.726;2023-09-08T09:49:30;99813.22;;;29.46;46.59
27984;BME280;15317;50.360;8.726;2023-09-08T09:54:34;99812.38;;;29.56;45.72
27984;BME280;15317;50.360;8.726;2023-09-08T09:59:38;99813.13;;;29.31;45.01
27984;BME280;15317;50.360;8.726;2023-09-08T10:04:43;99811.53;;;29.40;43.35
27984;BME280;15317;50.360;8.726;2023-09-08T10:09:46;99810.81;;;29.95;42.98
27984;BME280;15317;50.360;8.726;2023-09-08T10:14:51;99794.06;;;29.18;47.85
27984;BME280;15317;50.360;8.726;2023-09-08T10:20:00;99794.75;;;29.55;48.52
27984;BME280;15317;50.360;8.726;2023-09-08T10:25:12;99792.31;;;30.04;46.18
27984;BME280;15317;50.360;8.726;2023-09-08T10:30:17;99790.88;;;29.66;47.25
27984;BME280;15317;50.360;8.726;2023-09-08T10:35:24;99785.75;;;30.90;45.80
27984;BME280;15317;50.360;8.726;2023-09-08T10:40:27;99783.91;;;30.09;43.88
27984;BME280;15317;50.360;8.726;2023-09-08T10:45:35;99790.06;;;30.32;43.11
27984;BME280;15317;50.360;8.726;2023-09-08T10:50:41;99769.06;;;29.99;49.35
27984;BME280;15317;50.360;8.726;2023-09-08T10:55:46;99776.31;;;30.30;45.39
27984;BME280;15317;50.360;8.726;2023-09-08T11:00:59;99774.59;;;30.65;44.08
27984;BME280;15317;50.360;8.726;2023-09-08T11:06:05;99762.78;;;30.78;46.32
27984;BME280;15317;50.360;8.726;2023-09-08T11:11:10;99763.59;;;30.88;42.03
27984;BME280;15317;50.360;8.726;2023-09-08T11:16:14;99765.22;;;31.64;40.09
27984;BME280;15317;50.360;8.726;2023-09-08T11:21:19;99760.59;;;31.34;41.74
27984;BME280;15317;50.360;8.726;2023-09-08T11:26:24;99750.06;;;31.00;44.37
27984;BME280;15317;50.360;8.726;2023-09-08T11:31:27;99749.56;;;30.88;45.60
27984;BME280;15317;50.360;8.726;2023-09-08T11:36:32;99736.13;;;31.45;40.99
27984;BME280;15317;50.360;8.726;2023-09-08T11:41:35;99744.22;;;31.46;43.90
27984;BME280;15317;50.360;8.726;2023-09-08T11:46:40;99734.28;;;31.69;42.34
27984;BME280;15317;50.360;8.726;2023-09-08T11:51:45;99738.09;;;31.44;41.12
27984;BME280;15317;50.360;8.726;2023-09-08T11:56:49;99734.66;;;31.52;42.32
27984;BME280;15317;50.360;8.726;2023-09-08T12:01:52;99737.88;;;31.74;41.23
27984;BME280;15317;50.360;8.726;2023-09-08T12:06:57;99737.25;;;31.83;41.23
27984;BME280;15317;50.360;8.726;2023-09-08T12:12:03;99729.94;;;31.87;43.91
27984;BME280;15317;50.360;8.726;2023-09-08T12:17:06;99735.91;;;32.14;39.95
27984;BME280;15317;50.360;8.726;2023-09-08T12:22:12;99731.56;;;31.88;40.13
27984;BME280;15317;50.360;8.726;2023-09-08T12:27:20;99718.94;;;31.90;42.95
27984;BME280;15317;50.360;8.726;2023-09-08T12:32:25;99721.84;;;32.09;38.53
27984;BME280;15317;50.360;8.726;2023-09-08T12:37:32;99719.94;;;31.70;41.03
27984;BME280;15317;50.360;8.726;2023-09-08T12:42:37;99709.28;;;31.67;41.81
27984;BME280;15317;50.360;8.726;2023-09-08T12:47:51;99709.25;;;32.01;37.58
27984;BME280;15317;50.360;8.726;2023-09-08T12:52:56;99697.25;;;31.96;38.80
27984;BME280;15317;50.360;8.726;2023-09-08T12:58:00;99701.47;;;31.59;41.38
27984;BME280;15317;50.360;8.726;2023-09-08T13:03:04;99694.53;;;31.86;41.94
27984;BME280;15317;50.360;8.726;2023-09-08T13:08:09;99695.00;;;32.50;37.48
27984;BME280;15317;50.360;8.726;2023-09-08T13:13:13;99690.00;;;31.90;40.44
27984;BME280;15317;50.360;8.726;2023-09-08T13:18:17;99685.06;;;31.76;37.33
27984;BME280;15317;50.360;8.726;2023-09-08T13:23:22;99692.13;;;32.03;39.79
27984;BME280;15317;50.360;8.726;2023-09-08T13:28:25;99692.25;;;31.88;36.63
27984;BME280;15317;50.360;8.726;2023-09-08T13:33:30;99675.59;;;31.67;38.59
27984;BME280;15317;50.360;8.726;2023-09-08T13:38:35;99665.47;;;31.71;37.54
27984;BME280;15317;50.360;8.726;2023-09-08T13:43:39;99653.47;;;31.56;37.01
27984;BME280;15317;50.360;8.726;2023-09-08T13:48:47;99659.91;;;31.61;35.77
27984;BME280;15317;50.360;8.726;2023-09-08T13:53:56;99652.41;;;31.47;36.19
27984;BME280;15317;50.360;8.726;2023-09-08T13:59:00;99642.50;;;31.64;36.21
27984;BME280;15317;50.360;8.726;2023-09-08T14:04:05;99646.13;;;31.26;36.38
27984;BME280;15317;50.360;8.726;2023-09-08T14:09:13;99645.59;;;31.24;37.33
27984;BME280;15317;50.360;8.726;2023-09-08T14:14:19;99645.91;;;31.56;35.82
27984;BME280;15317;50.360;8.726;2023-09-08T14:19:24;99648.41;;;31.63;36.21
27984;BME280;15317;50.360;8.726;2023-09-08T14:24:29;99642.63;;;31.44;38.02
27984;BME280;15317;50.360;8.726;2023-09-08T14:29:34;99636.56;;;31.32;35.38
27984;BME280;15317;50.360;8.726;2023-09-08T14:34:37;99634.47;;;31.09;37.12
27984;BME280;15317;50.360;8.726;2023-09-08T14:39:42;99632.22;;;30.46;38.23
27984;BME280;15317;50.360;8.726;2023-09-08T14:44:46;99628.41;;;30.22;40.65
27984;BME280;15317;50.360;8.726;2023-09-08T14:49:51;99625.25;;;30.39;38.59
27984;BME280;15317;50.360;8.726;2023-09-08T14:54:56;99624.25;;;30.04;39.20
27984;BME280;15317;50.360;8.726;2023-09-08T14:59:59;99616.69;;;29.90;42.89
27984;BME280;15317;50.360;8.726;2023-09-08T15:05:03;99615.31;;;29.72;40.09
27984;BME280;15317;50.360;8.726;2023-09-08T15:10:09;99620.94;;;29.52;40.18
27984;BME280;15317;50.360;8.726;2023-09-08T15:15:13;99603.53;;;29.14;41.35
27984;BME280;15317;50.360;8.726;2023-09-08T15:20:16;99615.59;;;29.20;42.20
27984;BME280;15317;50.360;8.726;2023-09-08T15:25:21;99612.22;;;28.92;43.52
27984;BME280;15317;50.360;8.726;2023-09-08T15:30:25;99611.06;;;28.78;41.65
27984;BME280;15317;50.360;8.726;2023-09-08T15:35:28;99615.72;;;28.62;40.62
27984;BME280;15317;50.360;8.726;2023-09-08T15:40:33;99608.97;;;28.43;43.34
27984;BME280;15317;50.360;8.726;2023-09-08T15:45:37;99604.53;;;28.00;47.79
27984;BME280;15317;50.360;8.726;2023-09-08T15:50:41;99596.44;;;27.99;44.11
27984;BME280;15317;50.360;8.726;2023-09-08T15:55:45;99595.75;;;27.76;47.32
27984;BME280;15317;50.360;8.726;2023-09-08T16:00:49;99590.97;;;27.35;47.59
27984;BME280;15317;50.360;8.726;2023-09-08T16:05:52;99587.38;;;27.39;47.49
27984;BME280;15317;50.360;8.726;2023-09-08T16:10:59;99584.59;;;27.07;50.43
27984;BME280;15317;50.360;8.726;2023-09-08T16:16:03;99592.44;;;26.89;52.47
27984;BME280;15317;50.360;8.726;2023-09-08T16:21:07;99590.47;;;26.84;49.00
27984;BME280;15317;50.360;8.726;2023-09-08T16:26:12;99583.47;;;26.55;53.83
27984;BME280;15317;50.360;8.726;2023-09-08T16:31:15;99579.00;;;26.10;57.08
27984;BME280;15317;50.360;8.726;2023-09-08T16:36:19;99579.28;;;25.70;58.66
27984;BME280;15317;50.360;8.726;2023-09-08T16:41:24;99583.19;;;25.19;64.49
27984;BME280;15317;50.360;8.726;2023-09-08T16:46:28;99587.31;;;24.71;69.91
27984;BME280;15317;50.360;8.726;2023-09-08T16:51:31;99584.69;;;24.36;71.74
27984;BME280;15317;50.360;8.726;2023-09-08T16:56:36;99583.06;;;24.12;77.29
27984;BME280;15317;50.360;8.726;2023-09-08T17:01:40;99579.38;;;23.83;81.42
27984;BME280;15317;50.360;8.726;2023-09-08T17:06:43;99576.50;;;23.55;83.95
27984;BME280;15317;50.360;8.726;2023-09-08T17:11:48;99578.66;;;23.30;84.43
27984;BME280;15317;50.360;8.726;2023-09-08T17:16:51;99578.38;;;23.08;84.98
27984;BME280;15317;50.360;8.726;2023-09-08T17:21:55;99582.06;;;22.78;89.33
27984;BME280;15317;50.360;8.726;2023-09-08T17:27:02;99580.34;;;22.48;89.69
27984;BME280;15317;50.360;8.726;2023-09-08T17:32:05;99577.81;;;22.16;92.19
27984;BME280;15317;50.360;8.726;2023-09-08T17:37:10;99578.13;;;21.90;92.76
27984;BME280;15317;50.360;8.726;2023-09-08T17:42:15;99581.34;;;21.68;93.65
27984;BME280;15317;50.360;8.726;2023-09-08T17:47:19;99587.94;;;21.49;93.86
27984;BME280;15317;50.360;8.726;2023-09-08T17:52:23;99591.06;;;21.35;95.07
27984;BME280;15317;50.360;8.726;2023-09-08T17:57:28;99591.81;;;21.17;95.81
27984;BME280;15317;50.360;8.726;2023-09-08T18:02:32;99592.13;;;21.02;97.32
27984;BME280;15317;50.360;8.726;2023-09-08T18:07:35;99595.84;;;20.89;96.97
27984;BME280;15317;50.360;8.726;2023-09-08T18:12:41;99585.59;;;20.72;99.03
27984;BME280;15317;50.360;8.726;2023-09-08T18:17:45;99588.25;;;20.54;100.00
27984;BME280;15317;50.360;8.726;2023-09-08T18:22:49;99591.28;;;20.45;100.00
27984;BME280;15317;50.360;8.726;2023-09-08T18:27:57;99595.56;;;20.28;100.00
27984;BME280;15317;50.360;8.726;2023-09-08T18:33:01;99598.59;;;20.13;100.00
27984;BME280;15317;50.360;8.726;2023-09-08T18:38:04;99598.06;;;19.98;100.00
27984;BME280;15317;50.360;8.726;2023-09-08T18:43:10;99599.16;;;19.84;100.00
27984;BME280;15317;50.360;8.726;2023-09-08T18:48:13;99587.72;;;19.74;100.00
27984;BME280;15317;50.360;8.726;2023-09-08T18:53:16;99596.69;;;19.63;100.00
27984;BME280;15317;50.360;8.726;2023-09-08T18:58:21;99610.28;;;19.51;100.00
27984;BME280;15317;50.360;8.726;2023-09-08T19:03:25;99602.19;;;19.43;100.00
27984;BME280;15317;50.360;8.726;2023-09-08T19:08:28;99605.56;;;19.39;100.00
27984;BME280;15317;50.360;8.726;2023-09-08T19:13:35;99604.31;;;19.34;100.00
27984;BME280;15317;50.360;8.726;2023-09-08T19:18:39;99609.41;;;19.38;100.00
27984;BME280;15317;50.360;8.726;2023-09-08T19:23:42;99613.22;;;19.43;100.00
27984;BME280;15317;50.360;8.726;2023-09-08T19:28:48;99612.34;;;19.43;100.00
27984;BME280;15317;50.360;8.726;2023-09-08T19:33:52;99614.06;;;19.30;100.00
27984;BME280;15317;50.360;8.726;2023-09-08T19:38:55;99618.09;;;19.21;100.00
27984;BME280;15317;50.360;8.726;2023-09-08T19:44:01;99618.09;;;19.15;100.00
27984;BME280;15317;50.360;8.726;2023-09-08T19:49:05;99615.34;;;19.08;100.00
27984;BME280;15317;50.360;8.726;2023-09-08T19:54:09;99609.00;;;19.08;100.00
27984;BME280;15317;50.360;8.726;2023-09-08T19:59:14;99614.50;;;19.14;100.00
27984;BME280;15317;50.360;8.726;2023-09-08T20:04:20;99609.19;;;19.19;100.00
27984;BME280;15317;50.360;8.726;2023-09-08T20:09:24;99604.31;;;19.21;100.00
27984;BME280;15317;50.360;8.726;2023-09-08T20:14:29;99608.34;;;19.25;100.00
27984;BME280;15317;50.360;8.726;2023-09-08T20:19:32;99605.56;;;19.32;100.00
27984;BME280;15317;50.360;8.726;2023-09-08T20:24:36;99604.97;;;19.37;100.00
27984;BME280;15317;50.360;8.726;2023-09-08T20:29:42;99597.09;;;19.33;100.00
27984;BME280;15317;50.360;8.726;2023-09-08T20:34:46;99614.69;;;19.26;100.00
27984;BME280;15317;50.360;8.726;2023-09-08T20:39:49;99614.50;;;19.14;100.00
27984;BME280;15317;50.360;8.726;2023-09-08T20:44:54;99606.44;;;19.06;100.00
27984;BME280;15317;50.360;8.726;2023-09-08T20:49:57;99610.69;;;18.96;100.00
27984;BME280;15317;50.360;8.726;2023-09-08T20:55:00;99607.69;;;18.90;100.00
27984;BME280;15317;50.360;8.726;2023-09-08T21:00:07;99615.75;;;18.99;100.00
27984;BME280;15317;50.360;8.726;2023-09-08T21:05:12;99614.91;;;19.11;100.00
27984;BME280;15317;50.360;8.726;2023-09-08T21:10:15;99603.91;;;19.11;100.00
27984;BME280;15317;50.360;8.726;2023-09-08T21:15:20;99599.69;;;19.02;100.00
27984;BME280;15317;50.360;8.726;2023-09-08T21:20:23;99614.50;;;18.88;100.00
27984;BME280;15317;50.360;8.726;2023-09-08T21:25:26;99611.91;;;18.67;100.00
27984;BME280;15317;50.360;8.726;2023-09-08T21:30:32;99611.41;;;18.50;100.00
27984;BME280;15317;50.360;8.726;2023-09-08T21:35:35;99605.66;;;18.25;100.00
27984;BME280;15317;50.360;8.726;2023-09-08T21:40:38;99603.22;;;18.02;100.00
27984;BME280;15317;50.360;8.726;2023-09-08T21:45:43;99611.22;;;17.91;100.00
27984;BME280;15317;50.360;8.726;2023-09-08T21:50:52;99605.25;;;17.81;100.00
27984;BME280;15317;50.360;8.726;2023-09-08T21:55:56;99603.91;;;17.70;100.00
27984;BME280;15317;50.360;8.726;2023-09-08T22:01:01;99612.25;;;17.55;100.00
27984;BME280;15317;50.360;8.726;2023-09-08T22:06:04;99611.97;;;17.44;100.00
27984;BME280;15317;50.360;8.726;2023-09-08T22:11:08;99615.06;;;17.34;100.00
27984;BME280;15317;50.360;8.726;2023-09-08T22:16:12;99609.09;;;17.24;100.00
27984;BME280;15317;50.360;8.726;2023-09-08T22:21:17;99604.19;;;17.19;100.00
27984;BME280;15317;50.360;8.726;2023-09-08T22:26:20;99609.88;;;17.18;100.00
27984;BME280;15317;50.360;8.726;2023-09-08T22:31:26;99601.59;;;17.11;100.00
27984;BME280;15317;50.360;8.726;2023-09-08T22:36:29;99604.53;;;17.10;100.00
27984;BME280;15317;50.360;8.726;2023-09-08T22:41:32;99604.06;;;17.06;100.00
27984;BME280;15317;50.360;8.726;2023-09-08T22:46:37;99599.38;;;17.00;100.00
27984;BME280;15317;50.360;8.726;2023-09-08T22:51:40;99600.09;;;17.09;100.00
27984;BME280;15317;50.360;8.726;2023-09-08T22:56:44;99608.97;;;17.11;100.00
27984;BME280;15317;50.360;8.726;2023-09-08T23:01:48;99600.09;;;17.09;100.00
27984;BME280;15317;50.360;8.726;2023-09-08T23:06:52;99593.31;;;17.05;100.00
27984;BME280;15317;50.360;8.726;2023-09-08T23:11:55;99596.00;;;16.98;100.00
27984;BME280;15317;50.360;8.726;2023-09-08T23:17:00;99605.09;;;16.98;100.00
27984;BME280;15317;50.360;8.726;2023-09-08T23:22:04;99596.19;;;16.96;100.00
27984;BME280;15317;50.360;8.726;2023-09-08T23:27:07;99605.22;;;16.90;100.00
27984;BME280;15317;50.360;8.726;2023-09-08T23:32:11;99612.13;;;16.86;100.00
27984;BME280;15317;50.360;8.726;2023-09-08T23:37:17;99616.31;;;16.82;100.00
27984;BME280;15317;50.360;8.726;2023-09-08T23:42:20;99617.72;;;16.72;100.00
27984;BME280;15317;50.360;8.726;2023-09-08T23:47:25;99615.28;;;16.62;100.00
27984;BME280;15317;50.360;8.726;2023-09-08T23:52:28;99616.41;;;16.53;100.00
27984;BME280;15317;50.360;8.726;2023-09-08T23:57:32;99613.53;;;16.40;100.00
